sensor_id;sensor_type;location;lat;lon;timestamp;P1;durP1;ratioP1;P2;durP2;ratioP2
52858;SDS011;38721;53.098;6.596;2024-02-14T00:00:12;10.63;;;7.38;;
52858;SDS011;38721;53.098;6.596;2024-02-14T00:02:45;10.82;;;8.18;;
52858;SDS011;38721;53.098;6.596;2024-02-14T00:05:14;11.13;;;7.93;;
52858;SDS011;38721;53.098;6.596;2024-02-14T00:07:40;11.68;;;8.30;;
52858;SDS011;38721;53.098;6.596;2024-02-14T00:10:06;15.00;;;7.93;;
52858;SDS011;38721;53.098;6.596;2024-02-14T00:12:32;17.00;;;8.88;;
52858;SDS011;38721;53.098;6.596;2024-02-14T00:14:58;12.02;;;9.25;;
52858;SDS011;38721;53.098;6.596;2024-02-14T00:17:24;13.50;;;8.90;;
52858;SDS011;38721;53.098;6.596;2024-02-14T00:19:50;13.60;;;9.23;;
52858;SDS011;38721;53.098;6.596;2024-02-14T00:22:16;13.55;;;9.80;;
52858;SDS011;38721;53.098;6.596;2024-02-14T00:24:42;12.48;;;9.35;;
52858;SDS011;38721;53.098;6.596;2024-02-14T00:27:08;13.23;;;9.05;;
52858;SDS011;38721;53.098;6.596;2024-02-14T00:29:34;13.43;;;9.60;;
52858;SDS011;38721;53.098;6.596;2024-02-14T00:32:00;14.77;;;9.90;;
52858;SDS011;38721;53.098;6.596;2024-02-14T00:34:26;15.05;;;10.65;;
52858;SDS011;38721;53.098;6.596;2024-02-14T00:36:52;13.85;;;9.55;;
52858;SDS011;38721;53.098;6.596;2024-02-14T00:39:18;16.33;;;9.82;;
52858;SDS011;38721;53.098;6.596;2024-02-14T00:41:45;11.15;;;9.90;;
52858;SDS011;38721;53.098;6.596;2024-02-14T00:44:12;12.43;;;10.20;;
52858;SDS011;38721;53.098;6.596;2024-02-14T00:46:42;12.77;;;10.38;;
52858;SDS011;38721;53.098;6.596;2024-02-14T00:49:09;15.20;;;10.52;;
52858;SDS011;38721;53.098;6.596;2024-02-14T00:51:35;12.85;;;9.88;;
52858;SDS011;38721;53.098;6.596;2024-02-14T00:54:03;10.63;;;9.52;;
52858;SDS011;38721;53.098;6.596;2024-02-14T00:56:29;14.50;;;9.38;;
52858;SDS011;38721;53.098;6.596;2024-02-14T00:58:56;13.77;;;9.98;;
52858;SDS011;38721;53.098;6.596;2024-02-14T01:01:22;14.43;;;9.93;;
52858;SDS011;38721;53.098;6.596;2024-02-14T01:03:48;14.27;;;9.85;;
52858;SDS011;38721;53.098;6.596;2024-02-14T01:06:14;10.98;;;9.02;;
52858;SDS011;38721;53.098;6.596;2024-02-14T01:08:40;11.25;;;9.32;;
52858;SDS011;38721;53.098;6.596;2024-02-14T01:11:07;12.15;;;9.45;;
52858;SDS011;38721;53.098;6.596;2024-02-14T01:13:33;11.35;;;9.52;;
52858;SDS011;38721;53.098;6.596;2024-02-14T01:15:59;11.82;;;9.50;;
52858;SDS011;38721;53.098;6.596;2024-02-14T01:18:25;9.85;;;8.85;;
52858;SDS011;38721;53.098;6.596;2024-02-14T01:20:51;10.65;;;9.15;;
52858;SDS011;38721;53.098;6.596;2024-02-14T01:23:17;9.43;;;8.43;;
52858;SDS011;38721;53.098;6.596;2024-02-14T01:25:42;10.77;;;9.25;;
52858;SDS011;38721;53.098;6.596;2024-02-14T01:28:08;10.27;;;9.05;;
52858;SDS011;38721;53.098;6.596;2024-02-14T01:30:35;10.52;;;8.82;;
52858;SDS011;38721;53.098;6.596;2024-02-14T01:33:04;9.70;;;8.13;;
52858;SDS011;38721;53.098;6.596;2024-02-14T01:35:30;9.77;;;8.00;;
52858;SDS011;38721;53.098;6.596;2024-02-14T01:37:56;8.82;;;7.93;;
52858;SDS011;38721;53.098;6.596;2024-02-14T01:40:22;10.73;;;8.48;;
52858;SDS011;38721;53.098;6.596;2024-02-14T01:42:48;9.15;;;7.88;;
52858;SDS011;38721;53.098;6.596;2024-02-14T01:45:14;10.18;;;7.90;;
52858;SDS011;38721;53.098;6.596;2024-02-14T01:47:40;8.55;;;7.70;;
52858;SDS011;38721;53.098;6.596;2024-02-14T01:50:09;9.80;;;7.45;;
52858;SDS011;38721;53.098;6.596;2024-02-14T01:52:37;8.63;;;7.72;;
52858;SDS011;38721;53.098;6.596;2024-02-14T01:55:05;8.20;;;7.28;;
52858;SDS011;38721;53.098;6.596;2024-02-14T01:57:33;8.60;;;7.38;;
52858;SDS011;38721;53.098;6.596;2024-02-14T02:00:00;10.38;;;7.35;;
52858;SDS011;38721;53.098;6.596;2024-02-14T02:02:32;8.32;;;7.10;;
52858;SDS011;38721;53.098;6.596;2024-02-14T02:05:05;8.00;;;7.20;;
52858;SDS011;38721;53.098;6.596;2024-02-14T02:07:31;8.10;;;7.18;;
52858;SDS011;38721;53.098;6.596;2024-02-14T02:09:58;8.35;;;7.35;;
52858;SDS011;38721;53.098;6.596;2024-02-14T02:12:24;7.45;;;6.35;;
52858;SDS011;38721;53.098;6.596;2024-02-14T02:14:52;7.32;;;6.47;;
52858;SDS011;38721;53.098;6.596;2024-02-14T02:17:18;8.00;;;6.53;;
52858;SDS011;38721;53.098;6.596;2024-02-14T02:19:44;8.60;;;6.95;;
52858;SDS011;38721;53.098;6.596;2024-02-14T02:22:10;7.07;;;6.38;;
52858;SDS011;38721;53.098;6.596;2024-02-14T02:24:35;9.05;;;6.57;;
52858;SDS011;38721;53.098;6.596;2024-02-14T02:27:01;7.80;;;6.60;;
52858;SDS011;38721;53.098;6.596;2024-02-14T02:29:29;9.40;;;6.55;;
52858;SDS011;38721;53.098;6.596;2024-02-14T02:31:58;8.05;;;6.72;;
52858;SDS011;38721;53.098;6.596;2024-02-14T02:34:27;8.90;;;6.50;;
52858;SDS011;38721;53.098;6.596;2024-02-14T02:36:53;7.63;;;6.22;;
52858;SDS011;38721;53.098;6.596;2024-02-14T02:39:18;7.55;;;6.45;;
52858;SDS011;38721;53.098;6.596;2024-02-14T02:41:44;8.85;;;6.70;;
52858;SDS011;38721;53.098;6.596;2024-02-14T02:44:12;8.30;;;6.43;;
52858;SDS011;38721;53.098;6.596;2024-02-14T02:46:38;8.98;;;6.43;;
52858;SDS011;38721;53.098;6.596;2024-02-14T02:49:04;10.13;;;6.40;;
52858;SDS011;38721;53.098;6.596;2024-02-14T02:51:29;7.53;;;6.00;;
52858;SDS011;38721;53.098;6.596;2024-02-14T02:53:55;7.00;;;6.05;;
52858;SDS011;38721;53.098;6.596;2024-02-14T02:56:21;6.78;;;6.05;;
52858;SDS011;38721;53.098;6.596;2024-02-14T02:58:47;6.90;;;6.10;;
52858;SDS011;38721;53.098;6.596;2024-02-14T03:01:13;6.57;;;5.75;;
52858;SDS011;38721;53.098;6.596;2024-02-14T03:03:39;6.47;;;5.43;;
52858;SDS011;38721;53.098;6.596;2024-02-14T03:06:06;6.05;;;5.45;;
52858;SDS011;38721;53.098;6.596;2024-02-14T03:08:35;6.05;;;5.45;;
52858;SDS011;38721;53.098;6.596;2024-02-14T03:11:04;6.28;;;5.60;;
52858;SDS011;38721;53.098;6.596;2024-02-14T03:13:33;6.18;;;5.35;;
52858;SDS011;38721;53.098;6.596;2024-02-14T03:16:00;5.65;;;4.93;;
52858;SDS011;38721;53.098;6.596;2024-02-14T03:18:26;6.43;;;5.40;;
52858;SDS011;38721;53.098;6.596;2024-02-14T03:20:52;5.82;;;5.15;;
52858;SDS011;38721;53.098;6.596;2024-02-14T03:23:21;6.35;;;4.78;;
52858;SDS011;38721;53.098;6.596;2024-02-14T03:25:47;6.93;;;4.90;;
52858;SDS011;38721;53.098;6.596;2024-02-14T03:28:13;5.57;;;4.85;;
52858;SDS011;38721;53.098;6.596;2024-02-14T03:30:39;5.35;;;4.75;;
52858;SDS011;38721;53.098;6.596;2024-02-14T03:33:05;8.18;;;4.32;;
52858;SDS011;38721;53.098;6.596;2024-02-14T03:35:33;5.88;;;4.70;;
52858;SDS011;38721;53.098;6.596;2024-02-14T03:38:00;5.32;;;4.60;;
52858;SDS011;38721;53.098;6.596;2024-02-14T03:40:27;6.07;;;4.68;;
52858;SDS011;38721;53.098;6.596;2024-02-14T03:42:55;5.88;;;5.10;;
52858;SDS011;38721;53.098;6.596;2024-02-14T03:45:23;5.93;;;4.80;;
52858;SDS011;38721;53.098;6.596;2024-02-14T03:47:49;5.63;;;4.68;;
52858;SDS011;38721;53.098;6.596;2024-02-14T03:50:15;6.05;;;4.65;;
52858;SDS011;38721;53.098;6.596;2024-02-14T03:52:41;5.35;;;4.70;;
52858;SDS011;38721;53.098;6.596;2024-02-14T03:55:07;5.20;;;4.38;;
52858;SDS011;38721;53.098;6.596;2024-02-14T03:57:38;6.75;;;4.85;;
52858;SDS011;38721;53.098;6.596;2024-02-14T04:00:04;5.32;;;4.38;;
52858;SDS011;38721;53.098;6.596;2024-02-14T04:02:33;5.45;;;4.40;;
52858;SDS011;38721;53.098;6.596;2024-02-14T04:05:00;5.03;;;4.47;;
52858;SDS011;38721;53.098;6.596;2024-02-14T04:07:27;5.40;;;4.55;;
52858;SDS011;38721;53.098;6.596;2024-02-14T04:09:54;4.72;;;4.05;;
52858;SDS011;38721;53.098;6.596;2024-02-14T04:12:19;4.95;;;4.35;;
52858;SDS011;38721;53.098;6.596;2024-02-14T04:14:45;5.60;;;4.13;;
52858;SDS011;38721;53.098;6.596;2024-02-14T04:17:11;4.25;;;3.85;;
52858;SDS011;38721;53.098;6.596;2024-02-14T04:19:37;4.63;;;3.90;;
52858;SDS011;38721;53.098;6.596;2024-02-14T04:22:03;4.85;;;3.83;;
52858;SDS011;38721;53.098;6.596;2024-02-14T04:24:29;5.05;;;4.00;;
52858;SDS011;38721;53.098;6.596;2024-02-14T04:26:58;4.78;;;3.95;;
52858;SDS011;38721;53.098;6.596;2024-02-14T04:29:23;5.63;;;4.30;;
52858;SDS011;38721;53.098;6.596;2024-02-14T04:31:49;5.30;;;4.15;;
52858;SDS011;38721;53.098;6.596;2024-02-14T04:34:15;4.88;;;4.00;;
52858;SDS011;38721;53.098;6.596;2024-02-14T04:36:42;5.00;;;4.00;;
52858;SDS011;38721;53.098;6.596;2024-02-14T04:39:07;5.43;;;4.30;;
52858;SDS011;38721;53.098;6.596;2024-02-14T04:41:34;5.28;;;4.32;;
52858;SDS011;38721;53.098;6.596;2024-02-14T04:44:04;4.88;;;4.20;;
52858;SDS011;38721;53.098;6.596;2024-02-14T04:46:41;5.40;;;4.40;;
52858;SDS011;38721;53.098;6.596;2024-02-14T04:52:05;5.20;;;4.40;;
52858;SDS011;38721;53.098;6.596;2024-02-14T04:54:32;5.18;;;4.47;;
52858;SDS011;38721;53.098;6.596;2024-02-14T04:56:58;4.70;;;4.20;;
52858;SDS011;38721;53.098;6.596;2024-02-14T04:59:24;4.55;;;4.03;;
52858;SDS011;38721;53.098;6.596;2024-02-14T05:01:50;6.22;;;4.65;;
52858;SDS011;38721;53.098;6.596;2024-02-14T05:04:18;5.47;;;4.47;;
52858;SDS011;38721;53.098;6.596;2024-02-14T05:06:44;5.38;;;4.38;;
52858;SDS011;38721;53.098;6.596;2024-02-14T05:09:10;5.72;;;4.75;;
52858;SDS011;38721;53.098;6.596;2024-02-14T05:11:36;5.25;;;4.57;;
52858;SDS011;38721;53.098;6.596;2024-02-14T05:14:02;5.10;;;4.60;;
52858;SDS011;38721;53.098;6.596;2024-02-14T05:16:28;4.95;;;4.35;;
52858;SDS011;38721;53.098;6.596;2024-02-14T05:18:54;5.78;;;4.88;;
52858;SDS011;38721;53.098;6.596;2024-02-14T05:21:20;5.70;;;4.65;;
52858;SDS011;38721;53.098;6.596;2024-02-14T05:23:47;5.43;;;4.63;;
52858;SDS011;38721;53.098;6.596;2024-02-14T05:26:13;6.00;;;5.15;;
52858;SDS011;38721;53.098;6.596;2024-02-14T05:28:39;6.88;;;5.03;;
52858;SDS011;38721;53.098;6.596;2024-02-14T05:31:04;6.07;;;5.07;;
52858;SDS011;38721;53.098;6.596;2024-02-14T05:33:30;6.40;;;5.50;;
52858;SDS011;38721;53.098;6.596;2024-02-14T05:35:56;6.85;;;5.82;;
52858;SDS011;38721;53.098;6.596;2024-02-14T05:38:22;6.93;;;5.60;;
52858;SDS011;38721;53.098;6.596;2024-02-14T05:40:48;7.07;;;6.22;;
52858;SDS011;38721;53.098;6.596;2024-02-14T05:43:15;7.43;;;6.40;;
52858;SDS011;38721;53.098;6.596;2024-02-14T05:45:45;7.20;;;6.35;;
52858;SDS011;38721;53.098;6.596;2024-02-14T05:48:11;7.43;;;6.00;;
52858;SDS011;38721;53.098;6.596;2024-02-14T05:50:37;8.15;;;6.07;;
52858;SDS011;38721;53.098;6.596;2024-02-14T05:53:03;6.28;;;5.60;;
52858;SDS011;38721;53.098;6.596;2024-02-14T05:55:29;5.80;;;5.20;;
52858;SDS011;38721;53.098;6.596;2024-02-14T05:57:54;6.15;;;5.28;;
52858;SDS011;38721;53.098;6.596;2024-02-14T06:00:22;5.55;;;4.72;;
52858;SDS011;38721;53.098;6.596;2024-02-14T06:02:48;5.15;;;4.65;;
52858;SDS011;38721;53.098;6.596;2024-02-14T06:05:14;6.75;;;4.93;;
52858;SDS011;38721;53.098;6.596;2024-02-14T06:07:41;5.65;;;4.53;;
52858;SDS011;38721;53.098;6.596;2024-02-14T06:10:07;6.70;;;4.80;;
52858;SDS011;38721;53.098;6.596;2024-02-14T06:12:34;6.25;;;4.90;;
52858;SDS011;38721;53.098;6.596;2024-02-14T06:15:00;7.68;;;4.80;;
52858;SDS011;38721;53.098;6.596;2024-02-14T06:17:27;6.97;;;5.63;;
52858;SDS011;38721;53.098;6.596;2024-02-14T06:19:53;8.35;;;5.97;;
52858;SDS011;38721;53.098;6.596;2024-02-14T06:22:19;10.43;;;6.35;;
52858;SDS011;38721;53.098;6.596;2024-02-14T06:24:45;9.70;;;6.40;;
52858;SDS011;38721;53.098;6.596;2024-02-14T06:27:13;11.35;;;6.75;;
52858;SDS011;38721;53.098;6.596;2024-02-14T06:29:42;14.50;;;7.75;;
52858;SDS011;38721;53.098;6.596;2024-02-14T06:32:10;16.77;;;7.55;;
52858;SDS011;38721;53.098;6.596;2024-02-14T06:34:39;14.98;;;6.82;;
52858;SDS011;38721;53.098;6.596;2024-02-14T06:37:04;16.10;;;7.78;;
52858;SDS011;38721;53.098;6.596;2024-02-14T06:39:30;14.45;;;7.18;;
52858;SDS011;38721;53.098;6.596;2024-02-14T06:41:56;22.00;;;7.38;;
52858;SDS011;38721;53.098;6.596;2024-02-14T06:44:25;21.05;;;7.15;;
52858;SDS011;38721;53.098;6.596;2024-02-14T06:46:51;17.35;;;7.15;;
52858;SDS011;38721;53.098;6.596;2024-02-14T06:49:17;16.75;;;6.50;;
52858;SDS011;38721;53.098;6.596;2024-02-14T06:51:42;20.42;;;6.65;;
52858;SDS011;38721;53.098;6.596;2024-02-14T06:54:08;19.45;;;7.20;;
52858;SDS011;38721;53.098;6.596;2024-02-14T06:56:35;23.25;;;7.25;;
52858;SDS011;38721;53.098;6.596;2024-02-14T06:59:01;20.52;;;6.90;;
52858;SDS011;38721;53.098;6.596;2024-02-14T07:01:28;23.15;;;7.70;;
52858;SDS011;38721;53.098;6.596;2024-02-14T07:03:54;25.98;;;7.80;;
52858;SDS011;38721;53.098;6.596;2024-02-14T07:06:20;28.48;;;8.90;;
52858;SDS011;38721;53.098;6.596;2024-02-14T07:08:47;25.45;;;8.73;;
52858;SDS011;38721;53.098;6.596;2024-02-14T07:11:14;23.48;;;8.02;;
52858;SDS011;38721;53.098;6.596;2024-02-14T07:13:40;30.67;;;9.32;;
52858;SDS011;38721;53.098;6.596;2024-02-14T07:16:07;33.00;;;9.60;;
52858;SDS011;38721;53.098;6.596;2024-02-14T07:18:33;36.22;;;10.15;;
52858;SDS011;38721;53.098;6.596;2024-02-14T07:20:59;46.17;;;11.52;;
52858;SDS011;38721;53.098;6.596;2024-02-14T07:23:26;34.15;;;11.55;;
52858;SDS011;38721;53.098;6.596;2024-02-14T07:25:52;37.92;;;12.05;;
52858;SDS011;38721;53.098;6.596;2024-02-14T07:28:18;48.92;;;11.90;;
52858;SDS011;38721;53.098;6.596;2024-02-14T07:30:44;32.88;;;10.77;;
52858;SDS011;38721;53.098;6.596;2024-02-14T07:33:10;43.28;;;11.38;;
52858;SDS011;38721;53.098;6.596;2024-02-14T07:35:36;42.35;;;10.68;;
52858;SDS011;38721;53.098;6.596;2024-02-14T07:38:02;39.80;;;9.90;;
52858;SDS011;38721;53.098;6.596;2024-02-14T07:40:28;42.53;;;11.20;;
52858;SDS011;38721;53.098;6.596;2024-02-14T07:42:57;42.15;;;10.82;;
52858;SDS011;38721;53.098;6.596;2024-02-14T07:45:23;44.53;;;9.82;;
52858;SDS011;38721;53.098;6.596;2024-02-14T07:47:49;32.92;;;10.13;;
52858;SDS011;38721;53.098;6.596;2024-02-14T07:50:15;38.20;;;11.02;;
52858;SDS011;38721;53.098;6.596;2024-02-14T07:52:42;35.55;;;10.75;;
52858;SDS011;38721;53.098;6.596;2024-02-14T07:55:09;35.45;;;10.23;;
52858;SDS011;38721;53.098;6.596;2024-02-14T07:57:41;36.72;;;9.75;;
52858;SDS011;38721;53.098;6.596;2024-02-14T08:00:08;31.90;;;10.15;;
52858;SDS011;38721;53.098;6.596;2024-02-14T08:02:35;44.33;;;10.65;;
52858;SDS011;38721;53.098;6.596;2024-02-14T08:05:02;34.22;;;10.48;;
52858;SDS011;38721;53.098;6.596;2024-02-14T08:07:30;35.00;;;10.50;;
52858;SDS011;38721;53.098;6.596;2024-02-14T08:09:56;42.50;;;10.43;;
52858;SDS011;38721;53.098;6.596;2024-02-14T08:12:22;31.67;;;9.57;;
52858;SDS011;38721;53.098;6.596;2024-02-14T08:14:48;33.40;;;9.50;;
52858;SDS011;38721;53.098;6.596;2024-02-14T08:17:14;38.10;;;9.88;;
52858;SDS011;38721;53.098;6.596;2024-02-14T08:19:39;30.00;;;11.15;;
52858;SDS011;38721;53.098;6.596;2024-02-14T08:22:05;38.67;;;11.07;;
52858;SDS011;38721;53.098;6.596;2024-02-14T08:24:32;30.23;;;10.10;;
52858;SDS011;38721;53.098;6.596;2024-02-14T08:26:57;39.13;;;10.07;;
52858;SDS011;38721;53.098;6.596;2024-02-14T08:29:23;31.63;;;9.05;;
52858;SDS011;38721;53.098;6.596;2024-02-14T08:31:49;27.17;;;8.80;;
52858;SDS011;38721;53.098;6.596;2024-02-14T08:34:15;32.47;;;8.88;;
52858;SDS011;38721;53.098;6.596;2024-02-14T08:36:41;31.40;;;9.07;;
52858;SDS011;38721;53.098;6.596;2024-02-14T08:39:07;29.40;;;9.77;;
52858;SDS011;38721;53.098;6.596;2024-02-14T08:41:37;25.25;;;8.98;;
52858;SDS011;38721;53.098;6.596;2024-02-14T08:44:04;27.00;;;8.65;;
52858;SDS011;38721;53.098;6.596;2024-02-14T08:46:30;27.42;;;8.38;;
52858;SDS011;38721;53.098;6.596;2024-02-14T08:48:56;23.77;;;8.93;;
52858;SDS011;38721;53.098;6.596;2024-02-14T08:51:22;24.83;;;8.40;;
52858;SDS011;38721;53.098;6.596;2024-02-14T08:53:48;28.33;;;8.07;;
52858;SDS011;38721;53.098;6.596;2024-02-14T08:56:19;22.70;;;8.23;;
52858;SDS011;38721;53.098;6.596;2024-02-14T08:58:47;22.00;;;8.52;;
52858;SDS011;38721;53.098;6.596;2024-02-14T09:01:13;19.17;;;7.05;;
52858;SDS011;38721;53.098;6.596;2024-02-14T09:03:40;21.75;;;7.93;;
52858;SDS011;38721;53.098;6.596;2024-02-14T09:06:15;21.98;;;8.15;;
52858;SDS011;38721;53.098;6.596;2024-02-14T09:08:43;23.17;;;8.40;;
52858;SDS011;38721;53.098;6.596;2024-02-14T09:11:09;21.13;;;8.18;;
52858;SDS011;38721;53.098;6.596;2024-02-14T09:13:35;23.08;;;8.23;;
52858;SDS011;38721;53.098;6.596;2024-02-14T09:16:01;20.23;;;8.02;;
52858;SDS011;38721;53.098;6.596;2024-02-14T09:18:27;21.38;;;7.93;;
52858;SDS011;38721;53.098;6.596;2024-02-14T09:20:53;23.90;;;7.68;;
52858;SDS011;38721;53.098;6.596;2024-02-14T09:23:19;20.63;;;7.78;;
52858;SDS011;38721;53.098;6.596;2024-02-14T09:25:46;20.10;;;7.38;;
52858;SDS011;38721;53.098;6.596;2024-02-14T09:28:17;21.45;;;8.13;;
52858;SDS011;38721;53.098;6.596;2024-02-14T09:30:44;21.48;;;7.28;;
52858;SDS011;38721;53.098;6.596;2024-02-14T09:33:10;21.83;;;8.07;;
52858;SDS011;38721;53.098;6.596;2024-02-14T09:35:37;21.17;;;7.72;;
52858;SDS011;38721;53.098;6.596;2024-02-14T09:38:04;20.45;;;7.60;;
52858;SDS011;38721;53.098;6.596;2024-02-14T09:40:31;20.10;;;7.43;;
52858;SDS011;38721;53.098;6.596;2024-02-14T09:42:57;25.88;;;8.77;;
52858;SDS011;38721;53.098;6.596;2024-02-14T09:45:29;20.98;;;8.25;;
52858;SDS011;38721;53.098;6.596;2024-02-14T09:47:58;17.95;;;7.38;;
52858;SDS011;38721;53.098;6.596;2024-02-14T09:50:24;23.05;;;8.85;;
52858;SDS011;38721;53.098;6.596;2024-02-14T09:52:55;19.83;;;7.85;;
52858;SDS011;38721;53.098;6.596;2024-02-14T09:55:22;23.45;;;7.57;;
52858;SDS011;38721;53.098;6.596;2024-02-14T09:57:49;22.70;;;7.50;;
52858;SDS011;38721;53.098;6.596;2024-02-14T10:00:16;20.77;;;8.35;;
52858;SDS011;38721;53.098;6.596;2024-02-14T10:02:43;24.52;;;8.15;;
52858;SDS011;38721;53.098;6.596;2024-02-14T10:05:09;19.23;;;7.57;;
52858;SDS011;38721;53.098;6.596;2024-02-14T10:07:42;22.27;;;8.45;;
52858;SDS011;38721;53.098;6.596;2024-02-14T10:10:09;17.52;;;8.18;;
52858;SDS011;38721;53.098;6.596;2024-02-14T10:12:36;19.27;;;8.18;;
52858;SDS011;38721;53.098;6.596;2024-02-14T10:15:02;23.70;;;8.60;;
52858;SDS011;38721;53.098;6.596;2024-02-14T10:17:29;19.25;;;8.35;;
52858;SDS011;38721;53.098;6.596;2024-02-14T10:19:58;16.42;;;7.63;;
52858;SDS011;38721;53.098;6.596;2024-02-14T10:22:25;14.10;;;7.13;;
52858;SDS011;38721;53.098;6.596;2024-02-14T10:25:03;14.02;;;7.40;;
52858;SDS011;38721;53.098;6.596;2024-02-14T10:27:35;13.68;;;6.45;;
52858;SDS011;38721;53.098;6.596;2024-02-14T10:30:04;11.43;;;6.70;;
52858;SDS011;38721;53.098;6.596;2024-02-14T10:32:33;14.88;;;7.00;;
52858;SDS011;38721;53.098;6.596;2024-02-14T10:34:59;14.63;;;6.82;;
52858;SDS011;38721;53.098;6.596;2024-02-14T10:37:29;10.68;;;5.82;;
52858;SDS011;38721;53.098;6.596;2024-02-14T10:39:56;8.57;;;5.72;;
52858;SDS011;38721;53.098;6.596;2024-02-14T10:42:23;9.30;;;5.30;;
52858;SDS011;38721;53.098;6.596;2024-02-14T10:44:49;9.52;;;5.30;;
52858;SDS011;38721;53.098;6.596;2024-02-14T10:47:19;9.75;;;5.15;;
52858;SDS011;38721;53.098;6.596;2024-02-14T10:49:48;7.15;;;4.70;;
52858;SDS011;38721;53.098;6.596;2024-02-14T10:52:17;5.50;;;4.65;;
52858;SDS011;38721;53.098;6.596;2024-02-14T10:54:43;6.50;;;4.45;;
52858;SDS011;38721;53.098;6.596;2024-02-14T10:57:23;7.10;;;4.80;;
52858;SDS011;38721;53.098;6.596;2024-02-14T10:59:50;8.25;;;5.60;;
52858;SDS011;38721;53.098;6.596;2024-02-14T11:02:17;9.70;;;5.82;;
52858;SDS011;38721;53.098;6.596;2024-02-14T11:04:45;8.38;;;6.20;;
52858;SDS011;38721;53.098;6.596;2024-02-14T11:07:11;8.80;;;6.35;;
52858;SDS011;38721;53.098;6.596;2024-02-14T11:09:38;10.00;;;6.75;;
52858;SDS011;38721;53.098;6.596;2024-02-14T11:12:08;8.27;;;6.68;;
52858;SDS011;38721;53.098;6.596;2024-02-14T11:14:37;9.48;;;6.72;;
52858;SDS011;38721;53.098;6.596;2024-02-14T11:17:12;10.18;;;6.43;;
52858;SDS011;38721;53.098;6.596;2024-02-14T11:19:38;7.03;;;5.82;;
52858;SDS011;38721;53.098;6.596;2024-02-14T11:22:12;7.18;;;5.25;;
52858;SDS011;38721;53.098;6.596;2024-02-14T11:24:45;5.57;;;4.47;;
52858;SDS011;38721;53.098;6.596;2024-02-14T11:27:11;7.00;;;4.40;;
52858;SDS011;38721;53.098;6.596;2024-02-14T11:29:41;6.53;;;4.68;;
52858;SDS011;38721;53.098;6.596;2024-02-14T11:32:17;6.60;;;4.88;;
52858;SDS011;38721;53.098;6.596;2024-02-14T11:34:43;5.57;;;4.50;;
52858;SDS011;38721;53.098;6.596;2024-02-14T11:37:20;6.28;;;4.72;;
52858;SDS011;38721;53.098;6.596;2024-02-14T11:39:52;6.85;;;5.03;;
52858;SDS011;38721;53.098;6.596;2024-02-14T11:42:17;6.03;;;4.78;;
52858;SDS011;38721;53.098;6.596;2024-02-14T11:44:46;5.70;;;4.40;;
52858;SDS011;38721;53.098;6.596;2024-02-14T11:47:12;5.38;;;4.40;;
52858;SDS011;38721;53.098;6.596;2024-02-14T11:49:38;6.75;;;4.50;;
52858;SDS011;38721;53.098;6.596;2024-02-14T11:52:05;7.00;;;4.82;;
52858;SDS011;38721;53.098;6.596;2024-02-14T11:54:34;6.82;;;5.18;;
52858;SDS011;38721;53.098;6.596;2024-02-14T11:57:00;7.60;;;5.78;;
52858;SDS011;38721;53.098;6.596;2024-02-14T11:59:27;7.00;;;5.60;;
52858;SDS011;38721;53.098;6.596;2024-02-14T12:01:54;7.07;;;5.60;;
52858;SDS011;38721;53.098;6.596;2024-02-14T12:04:23;7.40;;;6.13;;
52858;SDS011;38721;53.098;6.596;2024-02-14T12:06:49;6.90;;;5.63;;
52858;SDS011;38721;53.098;6.596;2024-02-14T12:09:15;8.75;;;6.32;;
52858;SDS011;38721;53.098;6.596;2024-02-14T12:11:41;8.25;;;6.25;;
52858;SDS011;38721;53.098;6.596;2024-02-14T12:14:11;8.45;;;7.00;;
52858;SDS011;38721;53.098;6.596;2024-02-14T12:16:37;8.63;;;7.05;;
52858;SDS011;38721;53.098;6.596;2024-02-14T12:21:41;9.85;;;7.43;;
52858;SDS011;38721;53.098;6.596;2024-02-14T12:24:10;8.95;;;7.30;;
52858;SDS011;38721;53.098;6.596;2024-02-14T12:26:40;8.13;;;6.93;;
52858;SDS011;38721;53.098;6.596;2024-02-14T12:29:08;9.43;;;7.88;;
52858;SDS011;38721;53.098;6.596;2024-02-14T12:31:36;9.32;;;7.68;;
52858;SDS011;38721;53.098;6.596;2024-02-14T12:34:02;8.82;;;7.93;;
52858;SDS011;38721;53.098;6.596;2024-02-14T12:36:31;9.65;;;7.18;;
52858;SDS011;38721;53.098;6.596;2024-02-14T12:38:58;8.15;;;7.30;;
52858;SDS011;38721;53.098;6.596;2024-02-14T12:41:27;10.70;;;7.65;;
52858;SDS011;38721;53.098;6.596;2024-02-14T12:44:03;10.77;;;8.18;;
52858;SDS011;38721;53.098;6.596;2024-02-14T12:46:28;8.00;;;7.07;;
52858;SDS011;38721;53.098;6.596;2024-02-14T12:48:55;8.27;;;6.85;;
52858;SDS011;38721;53.098;6.596;2024-02-14T12:51:21;8.13;;;6.57;;
52858;SDS011;38721;53.098;6.596;2024-02-14T12:53:47;8.10;;;6.53;;
52858;SDS011;38721;53.098;6.596;2024-02-14T12:56:13;7.10;;;6.18;;
52858;SDS011;38721;53.098;6.596;2024-02-14T12:58:39;8.77;;;6.88;;
52858;SDS011;38721;53.098;6.596;2024-02-14T13:01:05;7.38;;;6.57;;
52858;SDS011;38721;53.098;6.596;2024-02-14T13:03:32;7.90;;;7.10;;
52858;SDS011;38721;53.098;6.596;2024-02-14T13:05:58;7.93;;;7.13;;
52858;SDS011;38721;53.098;6.596;2024-02-14T13:08:25;10.05;;;6.57;;
52858;SDS011;38721;53.098;6.596;2024-02-14T13:10:52;9.38;;;7.68;;
52858;SDS011;38721;53.098;6.596;2024-02-14T13:13:18;9.85;;;7.25;;
52858;SDS011;38721;53.098;6.596;2024-02-14T13:15:43;8.75;;;7.88;;
52858;SDS011;38721;53.098;6.596;2024-02-14T13:18:10;8.07;;;6.95;;
52858;SDS011;38721;53.098;6.596;2024-02-14T13:20:36;8.68;;;7.78;;
52858;SDS011;38721;53.098;6.596;2024-02-14T13:23:03;7.78;;;6.97;;
52858;SDS011;38721;53.098;6.596;2024-02-14T13:25:29;7.45;;;6.65;;
52858;SDS011;38721;53.098;6.596;2024-02-14T13:27:55;7.25;;;6.40;;
52858;SDS011;38721;53.098;6.596;2024-02-14T13:30:21;8.30;;;6.50;;
52858;SDS011;38721;53.098;6.596;2024-02-14T13:32:47;8.82;;;6.75;;
52858;SDS011;38721;53.098;6.596;2024-02-14T13:35:13;9.00;;;7.22;;
52858;SDS011;38721;53.098;6.596;2024-02-14T13:37:39;8.00;;;6.82;;
52858;SDS011;38721;53.098;6.596;2024-02-14T13:40:05;8.98;;;7.57;;
52858;SDS011;38721;53.098;6.596;2024-02-14T13:42:36;10.20;;;7.95;;
52858;SDS011;38721;53.098;6.596;2024-02-14T13:45:03;11.00;;;8.30;;
52858;SDS011;38721;53.098;6.596;2024-02-14T13:47:37;9.45;;;8.45;;
52858;SDS011;38721;53.098;6.596;2024-02-14T13:50:07;11.32;;;8.82;;
52858;SDS011;38721;53.098;6.596;2024-02-14T13:52:34;10.35;;;9.00;;
52858;SDS011;38721;53.098;6.596;2024-02-14T13:55:03;12.18;;;9.70;;
52858;SDS011;38721;53.098;6.596;2024-02-14T13:57:31;12.05;;;10.45;;
52858;SDS011;38721;53.098;6.596;2024-02-14T14:00:03;12.35;;;10.43;;
52858;SDS011;38721;53.098;6.596;2024-02-14T14:02:30;13.57;;;11.75;;
52858;SDS011;38721;53.098;6.596;2024-02-14T14:04:55;14.55;;;12.60;;
52858;SDS011;38721;53.098;6.596;2024-02-14T14:07:21;14.52;;;11.95;;
52858;SDS011;38721;53.098;6.596;2024-02-14T14:09:49;16.20;;;12.85;;
52858;SDS011;38721;53.098;6.596;2024-02-14T14:12:14;17.13;;;12.45;;
52858;SDS011;38721;53.098;6.596;2024-02-14T14:14:40;15.88;;;13.00;;
52858;SDS011;38721;53.098;6.596;2024-02-14T14:17:06;15.40;;;12.40;;
52858;SDS011;38721;53.098;6.596;2024-02-14T14:19:32;17.35;;;13.18;;
52858;SDS011;38721;53.098;6.596;2024-02-14T14:21:57;16.25;;;11.90;;
52858;SDS011;38721;53.098;6.596;2024-02-14T14:24:23;15.20;;;11.45;;
52858;SDS011;38721;53.098;6.596;2024-02-14T14:26:50;14.85;;;10.90;;
52858;SDS011;38721;53.098;6.596;2024-02-14T14:29:16;13.27;;;10.90;;
52858;SDS011;38721;53.098;6.596;2024-02-14T14:31:41;12.77;;;10.43;;
52858;SDS011;38721;53.098;6.596;2024-02-14T14:34:07;13.48;;;10.20;;
52858;SDS011;38721;53.098;6.596;2024-02-14T14:36:33;11.57;;;9.77;;
52858;SDS011;38721;53.098;6.596;2024-02-14T14:39:02;14.07;;;9.50;;
52858;SDS011;38721;53.098;6.596;2024-02-14T14:41:31;11.25;;;9.63;;
52858;SDS011;38721;53.098;6.596;2024-02-14T14:43:57;9.93;;;8.70;;